sensor_id;sensor_type;location;lat;lon;timestamp;P1;durP1;ratioP1;P2;durP2;ratioP2
62289;SDS011;48284;46.828;29.480;2022-09-09T00:01:22;18.92;;;8.25;;
62289;SDS011;48284;46.828;29.480;2022-09-09T00:03:59;21.30;;;8.40;;
62289;SDS011;48284;46.828;29.480;2022-09-09T00:06:34;20.38;;;9.00;;
62289;SDS011;48284;46.828;29.480;2022-09-09T00:09:06;16.65;;;8.20;;
62289;SDS011;48284;46.828;29.480;2022-09-09T00:11:41;16.30;;;8.40;;
62289;SDS011;48284;46.828;29.480;2022-09-09T00:14:17;17.83;;;8.18;;
62289;SDS011;48284;46.828;29.480;2022-09-09T00:16:53;13.68;;;7.97;;
62289;SDS011;48284;46.828;29.480;2022-09-09T00:19:27;15.80;;;8.70;;
62289;SDS011;48284;46.828;29.480;2022-09-09T00:22:05;19.63;;;8.35;;
62289;SDS011;48284;46.828;29.480;2022-09-09T00:24:43;17.42;;;8.02;;
62289;SDS011;48284;46.828;29.480;2022-09-09T00:27:16;14.63;;;8.60;;
62289;SDS011;48284;46.828;29.480;2022-09-09T00:29:52;17.20;;;8.32;;
62289;SDS011;48284;46.828;29.480;2022-09-09T00:32:24;14.90;;;7.95;;
62289;SDS011;48284;46.828;29.480;2022-09-09T00:34:58;20.92;;;8.73;;
62289;SDS011;48284;46.828;29.480;2022-09-09T00:37:29;15.48;;;7.78;;
62289;SDS011;48284;46.828;29.480;2022-09-09T00:40:02;19.85;;;8.48;;
62289;SDS011;48284;46.828;29.480;2022-09-09T00:42:44;16.70;;;8.02;;
62289;SDS011;48284;46.828;29.480;2022-09-09T00:45:17;15.30;;;8.32;;
62289;SDS011;48284;46.828;29.480;2022-09-09T00:48:00;18.88;;;8.82;;
62289;SDS011;48284;46.828;29.480;2022-09-09T00:50:42;17.92;;;7.82;;
62289;SDS011;48284;46.828;29.480;2022-09-09T00:53:22;15.68;;;8.68;;
62289;SDS011;48284;46.828;29.480;2022-09-09T00:56:00;15.70;;;7.88;;
62289;SDS011;48284;46.828;29.480;2022-09-09T00:58:36;16.42;;;7.30;;
62289;SDS011;48284;46.828;29.480;2022-09-09T01:03:39;17.35;;;8.10;;
62289;SDS011;48284;46.828;29.480;2022-09-09T01:06:16;16.37;;;7.40;;
62289;SDS011;48284;46.828;29.480;2022-09-09T01:09:08;13.55;;;7.45;;
62289;SDS011;48284;46.828;29.480;2022-09-09T01:11:47;17.35;;;8.35;;
62289;SDS011;48284;46.828;29.480;2022-09-09T01:14:32;14.38;;;8.05;;
62289;SDS011;48284;46.828;29.480;2022-09-09T01:17:10;15.07;;;7.20;;
62289;SDS011;48284;46.828;29.480;2022-09-09T01:20:03;12.45;;;7.60;;
62289;SDS011;48284;46.828;29.480;2022-09-09T01:22:44;16.38;;;7.78;;
62289;SDS011;48284;46.828;29.480;2022-09-09T01:25:27;15.93;;;7.75;;
62289;SDS011;48284;46.828;29.480;2022-09-09T01:28:08;15.13;;;7.50;;
62289;SDS011;48284;46.828;29.480;2022-09-09T01:30:42;13.80;;;7.55;;
62289;SDS011;48284;46.828;29.480;2022-09-09T01:33:15;15.13;;;8.35;;
62289;SDS011;48284;46.828;29.480;2022-09-09T01:35:46;15.45;;;8.40;;
62289;SDS011;48284;46.828;29.480;2022-09-09T01:38:23;15.02;;;8.45;;
62289;SDS011;48284;46.828;29.480;2022-09-09T01:40:54;18.05;;;8.65;;
62289;SDS011;48284;46.828;29.480;2022-09-09T01:43:31;17.10;;;7.25;;
62289;SDS011;48284;46.828;29.480;2022-09-09T01:46:01;12.50;;;6.80;;
62289;SDS011;48284;46.828;29.480;2022-09-09T01:48:31;16.92;;;7.88;;
62289;SDS011;48284;46.828;29.480;2022-09-09T01:51:23;11.77;;;7.43;;
62289;SDS011;48284;46.828;29.480;2022-09-09T01:54:10;13.40;;;7.35;;
62289;SDS011;48284;46.828;29.480;2022-09-09T01:57:00;13.90;;;7.10;;
62289;SDS011;48284;46.828;29.480;2022-09-09T01:59:53;13.60;;;7.70;;
62289;SDS011;48284;46.828;29.480;2022-09-09T02:02:43;13.52;;;7.68;;
62289;SDS011;48284;46.828;29.480;2022-09-09T02:05:25;12.52;;;7.28;;
62289;SDS011;48284;46.828;29.480;2022-09-09T02:08:05;14.88;;;7.57;;
62289;SDS011;48284;46.828;29.480;2022-09-09T02:10:47;14.77;;;7.65;;
62289;SDS011;48284;46.828;29.480;2022-09-09T02:13:35;12.87;;;7.73;;
62289;SDS011;48284;46.828;29.480;2022-09-09T02:16:12;13.82;;;7.10;;
62289;SDS011;48284;46.828;29.480;2022-09-09T02:18:48;11.97;;;7.07;;
62289;SDS011;48284;46.828;29.480;2022-09-09T02:21:26;12.02;;;7.18;;
62289;SDS011;48284;46.828;29.480;2022-09-09T02:23:56;14.98;;;7.88;;
62289;SDS011;48284;46.828;29.480;2022-09-09T02:26:37;12.15;;;7.10;;
62289;SDS011;48284;46.828;29.480;2022-09-09T02:29:12;12.75;;;7.95;;
62289;SDS011;48284;46.828;29.480;2022-09-09T02:31:47;13.52;;;7.13;;
62289;SDS011;48284;46.828;29.480;2022-09-09T02:34:22;13.88;;;7.20;;
62289;SDS011;48284;46.828;29.480;2022-09-09T02:36:54;11.07;;;7.20;;
62289;SDS011;48284;46.828;29.480;2022-09-09T02:39:25;10.30;;;6.85;;
62289;SDS011;48284;46.828;29.480;2022-09-09T02:41:54;17.75;;;7.38;;
62289;SDS011;48284;46.828;29.480;2022-09-09T02:44:29;12.68;;;7.45;;
62289;SDS011;48284;46.828;29.480;2022-09-09T02:47:10;11.45;;;7.50;;
62289;SDS011;48284;46.828;29.480;2022-09-09T02:49:48;17.65;;;7.97;;
62289;SDS011;48284;46.828;29.480;2022-09-09T02:52:31;14.85;;;7.40;;
62289;SDS011;48284;46.828;29.480;2022-09-09T02:55:06;12.80;;;7.32;;
62289;SDS011;48284;46.828;29.480;2022-09-09T02:57:45;14.07;;;7.82;;
62289;SDS011;48284;46.828;29.480;2022-09-09T03:00:22;14.10;;;7.30;;
62289;SDS011;48284;46.828;29.480;2022-09-09T03:02:55;13.70;;;7.30;;
62289;SDS011;48284;46.828;29.480;2022-09-09T03:05:25;18.15;;;7.20;;
62289;SDS011;48284;46.828;29.480;2022-09-09T03:07:55;15.68;;;7.38;;
62289;SDS011;48284;46.828;29.480;2022-09-09T03:10:23;12.32;;;7.15;;
62289;SDS011;48284;46.828;29.480;2022-09-09T03:12:52;13.02;;;7.40;;
62289;SDS011;48284;46.828;29.480;2022-09-09T03:15:21;15.98;;;7.97;;
62289;SDS011;48284;46.828;29.480;2022-09-09T03:17:50;18.05;;;7.20;;
62289;SDS011;48284;46.828;29.480;2022-09-09T03:20:22;11.80;;;7.75;;
62289;SDS011;48284;46.828;29.480;2022-09-09T03:22:51;11.30;;;7.10;;
62289;SDS011;48284;46.828;29.480;2022-09-09T03:25:20;17.88;;;7.75;;
62289;SDS011;48284;46.828;29.480;2022-09-09T03:27:51;15.85;;;7.82;;
62289;SDS011;48284;46.828;29.480;2022-09-09T03:30:23;13.15;;;6.82;;
62289;SDS011;48284;46.828;29.480;2022-09-09T03:32:55;14.90;;;7.05;;
62289;SDS011;48284;46.828;29.480;2022-09-09T03:35:31;11.27;;;7.07;;
62289;SDS011;48284;46.828;29.480;2022-09-09T03:37:59;12.13;;;6.82;;
62289;SDS011;48284;46.828;29.480;2022-09-09T03:40:31;24.88;;;8.20;;
62289;SDS011;48284;46.828;29.480;2022-09-09T03:43:00;11.70;;;7.28;;
62289;SDS011;48284;46.828;29.480;2022-09-09T03:45:28;11.93;;;7.18;;
62289;SDS011;48284;46.828;29.480;2022-09-09T03:47:57;13.20;;;7.32;;
62289;SDS011;48284;46.828;29.480;2022-09-09T03:50:26;16.10;;;7.35;;
62289;SDS011;48284;46.828;29.480;2022-09-09T03:52:56;11.73;;;8.00;;
62289;SDS011;48284;46.828;29.480;2022-09-09T03:55:26;14.27;;;7.15;;
62289;SDS011;48284;46.828;29.480;2022-09-09T03:57:54;14.43;;;6.97;;
62289;SDS011;48284;46.828;29.480;2022-09-09T04:00:23;13.23;;;7.03;;
62289;SDS011;48284;46.828;29.480;2022-09-09T04:02:54;13.88;;;7.15;;
62289;SDS011;48284;46.828;29.480;2022-09-09T04:05:24;14.77;;;7.55;;
62289;SDS011;48284;46.828;29.480;2022-09-09T04:10:23;15.02;;;7.20;;
62289;SDS011;48284;46.828;29.480;2022-09-09T04:12:53;10.95;;;6.70;;
62289;SDS011;48284;46.828;29.480;2022-09-09T04:15:22;15.23;;;7.25;;
62289;SDS011;48284;46.828;29.480;2022-09-09T04:17:50;13.77;;;6.90;;
62289;SDS011;48284;46.828;29.480;2022-09-09T04:20:19;13.25;;;7.90;;
62289;SDS011;48284;46.828;29.480;2022-09-09T04:22:49;14.95;;;6.88;;
62289;SDS011;48284;46.828;29.480;2022-09-09T04:25:17;13.68;;;7.38;;
62289;SDS011;48284;46.828;29.480;2022-09-09T04:27:48;10.15;;;6.78;;
62289;SDS011;48284;46.828;29.480;2022-09-09T04:30:21;10.23;;;7.18;;
62289;SDS011;48284;46.828;29.480;2022-09-09T04:32:50;11.10;;;6.57;;
62289;SDS011;48284;46.828;29.480;2022-09-09T04:35:19;9.98;;;7.82;;
62289;SDS011;48284;46.828;29.480;2022-09-09T04:37:47;10.63;;;6.82;;
62289;SDS011;48284;46.828;29.480;2022-09-09T04:40:16;12.05;;;7.38;;
62289;SDS011;48284;46.828;29.480;2022-09-09T04:45:16;12.00;;;7.43;;
62289;SDS011;48284;46.828;29.480;2022-09-09T04:47:45;8.98;;;6.47;;
62289;SDS011;48284;46.828;29.480;2022-09-09T04:50:14;11.00;;;7.05;;
62289;SDS011;48284;46.828;29.480;2022-09-09T04:52:46;14.98;;;7.13;;
62289;SDS011;48284;46.828;29.480;2022-09-09T04:57:44;12.10;;;7.10;;
62289;SDS011;48284;46.828;29.480;2022-09-09T05:00:13;13.30;;;6.22;;
62289;SDS011;48284;46.828;29.480;2022-09-09T05:02:46;15.40;;;7.13;;
62289;SDS011;48284;46.828;29.480;2022-09-09T05:05:15;12.25;;;6.95;;
62289;SDS011;48284;46.828;29.480;2022-09-09T05:07:43;9.77;;;6.68;;
62289;SDS011;48284;46.828;29.480;2022-09-09T05:10:13;9.77;;;6.28;;
62289;SDS011;48284;46.828;29.480;2022-09-09T05:12:51;12.30;;;6.93;;
62289;SDS011;48284;46.828;29.480;2022-09-09T05:15:25;15.70;;;6.57;;
62289;SDS011;48284;46.828;29.480;2022-09-09T05:17:56;10.95;;;6.15;;
62289;SDS011;48284;46.828;29.480;2022-09-09T05:20:27;12.68;;;7.13;;
62289;SDS011;48284;46.828;29.480;2022-09-09T05:25:28;11.55;;;6.32;;
62289;SDS011;48284;46.828;29.480;2022-09-09T05:27:57;16.90;;;6.72;;
62289;SDS011;48284;46.828;29.480;2022-09-09T05:30:29;11.40;;;6.53;;
62289;SDS011;48284;46.828;29.480;2022-09-09T05:32:59;13.10;;;6.85;;
62289;SDS011;48284;46.828;29.480;2022-09-09T05:35:28;12.07;;;5.95;;
62289;SDS011;48284;46.828;29.480;2022-09-09T05:37:58;12.23;;;6.68;;
62289;SDS011;48284;46.828;29.480;2022-09-09T05:40:28;13.73;;;6.82;;
62289;SDS011;48284;46.828;29.480;2022-09-09T05:42:59;12.57;;;7.07;;
62289;SDS011;48284;46.828;29.480;2022-09-09T05:45:30;13.32;;;6.60;;
62289;SDS011;48284;46.828;29.480;2022-09-09T05:47:59;15.82;;;7.50;;
62289;SDS011;48284;46.828;29.480;2022-09-09T05:50:29;15.60;;;7.00;;
62289;SDS011;48284;46.828;29.480;2022-09-09T05:52:58;18.88;;;7.50;;
62289;SDS011;48284;46.828;29.480;2022-09-09T05:55:27;16.23;;;6.70;;
62289;SDS011;48284;46.828;29.480;2022-09-09T05:57:55;16.63;;;7.18;;
62289;SDS011;48284;46.828;29.480;2022-09-09T06:00:24;19.55;;;7.35;;
62289;SDS011;48284;46.828;29.480;2022-09-09T06:02:55;18.80;;;7.85;;
62289;SDS011;48284;46.828;29.480;2022-09-09T06:05:24;15.70;;;7.05;;
62289;SDS011;48284;46.828;29.480;2022-09-09T06:07:55;16.60;;;8.00;;
62289;SDS011;48284;46.828;29.480;2022-09-09T06:10:24;14.32;;;8.35;;
62289;SDS011;48284;46.828;29.480;2022-09-09T06:12:53;18.42;;;8.27;;
62289;SDS011;48284;46.828;29.480;2022-09-09T06:15:21;17.63;;;7.80;;
62289;SDS011;48284;46.828;29.480;2022-09-09T06:17:55;17.98;;;8.07;;
62289;SDS011;48284;46.828;29.480;2022-09-09T06:20:23;22.13;;;9.00;;
62289;SDS011;48284;46.828;29.480;2022-09-09T06:22:52;21.58;;;9.57;;
62289;SDS011;48284;46.828;29.480;2022-09-09T06:25:20;18.20;;;8.77;;
62289;SDS011;48284;46.828;29.480;2022-09-09T06:27:49;17.30;;;9.43;;
62289;SDS011;48284;46.828;29.480;2022-09-09T06:30:17;21.30;;;8.55;;
62289;SDS011;48284;46.828;29.480;2022-09-09T06:32:46;19.17;;;8.85;;
62289;SDS011;48284;46.828;29.480;2022-09-09T06:35:16;18.75;;;9.02;;
62289;SDS011;48284;46.828;29.480;2022-09-09T06:37:44;17.52;;;8.50;;
62289;SDS011;48284;46.828;29.480;2022-09-09T06:40:17;16.73;;;8.23;;
62289;SDS011;48284;46.828;29.480;2022-09-09T06:42:46;15.15;;;7.65;;
62289;SDS011;48284;46.828;29.480;2022-09-09T06:45:31;16.45;;;8.43;;
62289;SDS011;48284;46.828;29.480;2022-09-09T06:48:03;15.18;;;7.47;;
62289;SDS011;48284;46.828;29.480;2022-09-09T06:50:33;15.63;;;7.55;;
62289;SDS011;48284;46.828;29.480;2022-09-09T06:53:02;14.95;;;7.75;;
62289;SDS011;48284;46.828;29.480;2022-09-09T06:55:31;18.55;;;7.75;;
62289;SDS011;48284;46.828;29.480;2022-09-09T06:58:00;21.98;;;7.32;;
62289;SDS011;48284;46.828;29.480;2022-09-09T07:00:29;17.13;;;7.55;;
62289;SDS011;48284;46.828;29.480;2022-09-09T07:02:58;20.95;;;8.95;;
62289;SDS011;48284;46.828;29.480;2022-09-09T07:07:57;36.00;;;9.90;;
62289;SDS011;48284;46.828;29.480;2022-09-09T07:10:26;46.10;;;11.25;;
62289;SDS011;48284;46.828;29.480;2022-09-09T07:12:55;20.83;;;9.07;;
62289;SDS011;48284;46.828;29.480;2022-09-09T07:15:24;22.30;;;7.82;;
62289;SDS011;48284;46.828;29.480;2022-09-09T07:17:54;20.27;;;7.93;;
62289;SDS011;48284;46.828;29.480;2022-09-09T07:20:22;16.25;;;7.78;;
62289;SDS011;48284;46.828;29.480;2022-09-09T07:22:54;16.10;;;7.72;;
62289;SDS011;48284;46.828;29.480;2022-09-09T07:25:24;17.10;;;7.00;;
62289;SDS011;48284;46.828;29.480;2022-09-09T07:27:55;18.45;;;7.00;;
62289;SDS011;48284;46.828;29.480;2022-09-09T07:30:24;13.88;;;6.78;;
62289;SDS011;48284;46.828;29.480;2022-09-09T07:32:54;15.55;;;7.38;;
62289;SDS011;48284;46.828;29.480;2022-09-09T07:35:24;13.32;;;6.05;;
62289;SDS011;48284;46.828;29.480;2022-09-09T07:37:54;11.82;;;5.78;;
62289;SDS011;48284;46.828;29.480;2022-09-09T07:42:52;12.05;;;6.03;;
62289;SDS011;48284;46.828;29.480;2022-09-09T07:45:21;19.80;;;5.90;;
62289;SDS011;48284;46.828;29.480;2022-09-09T07:47:50;16.20;;;5.93;;
62289;SDS011;48284;46.828;29.480;2022-09-09T07:50:20;14.80;;;5.78;;
62289;SDS011;48284;46.828;29.480;2022-09-09T07:52:50;13.57;;;5.90;;
62289;SDS011;48284;46.828;29.480;2022-09-09T07:55:20;12.20;;;5.70;;
62289;SDS011;48284;46.828;29.480;2022-09-09T07:57:52;12.52;;;5.78;;
62289;SDS011;48284;46.828;29.480;2022-09-09T08:00:21;11.05;;;5.80;;
62289;SDS011;48284;46.828;29.480;2022-09-09T08:02:55;11.25;;;5.55;;
62289;SDS011;48284;46.828;29.480;2022-09-09T08:05:23;15.15;;;5.63;;
62289;SDS011;48284;46.828;29.480;2022-09-09T08:07:52;15.57;;;5.13;;
62289;SDS011;48284;46.828;29.480;2022-09-09T08:10:21;9.25;;;5.22;;
62289;SDS011;48284;46.828;29.480;2022-09-09T08:12:53;11.38;;;5.60;;
62289;SDS011;48284;46.828;29.480;2022-09-09T08:15:42;12.00;;;5.10;;
62289;SDS011;48284;46.828;29.480;2022-09-09T08:18:11;10.35;;;5.03;;
62289;SDS011;48284;46.828;29.480;2022-09-09T08:20:40;8.00;;;4.45;;
62289;SDS011;48284;46.828;29.480;2022-09-09T08:23:09;10.90;;;5.22;;
62289;SDS011;48284;46.828;29.480;2022-09-09T08:25:38;13.52;;;5.07;;
62289;SDS011;48284;46.828;29.480;2022-09-09T08:28:07;12.90;;;5.43;;
62289;SDS011;48284;46.828;29.480;2022-09-09T08:30:38;10.88;;;4.80;;
62289;SDS011;48284;46.828;29.480;2022-09-09T08:33:06;9.77;;;5.38;;
62289;SDS011;48284;46.828;29.480;2022-09-09T08:35:37;15.50;;;5.32;;
62289;SDS011;48284;46.828;29.480;2022-09-09T08:38:06;18.10;;;5.38;;
62289;SDS011;48284;46.828;29.480;2022-09-09T08:40:38;17.52;;;5.00;;
62289;SDS011;48284;46.828;29.480;2022-09-09T08:43:12;17.48;;;5.00;;
62289;SDS011;48284;46.828;29.480;2022-09-09T08:45:46;16.35;;;5.70;;
62289;SDS011;48284;46.828;29.480;2022-09-09T08:48:28;12.85;;;5.28;;
62289;SDS011;48284;46.828;29.480;2022-09-09T08:51:09;8.15;;;4.85;;
62289;SDS011;48284;46.828;29.480;2022-09-09T08:53:40;11.93;;;4.82;;
62289;SDS011;48284;46.828;29.480;2022-09-09T08:56:14;9.00;;;4.80;;
62289;SDS011;48284;46.828;29.480;2022-09-09T08:58:55;7.78;;;4.50;;
62289;SDS011;48284;46.828;29.480;2022-09-09T09:01:42;7.83;;;5.63;;
62289;SDS011;48284;46.828;29.480;2022-09-09T09:04:48;5.93;;;4.57;;
62289;SDS011;48284;46.828;29.480;2022-09-09T09:07:32;5.78;;;4.15;;
62289;SDS011;48284;46.828;29.480;2022-09-09T09:10:20;6.68;;;4.47;;
62289;SDS011;48284;46.828;29.480;2022-09-09T09:13:19;8.35;;;4.28;;
62289;SDS011;48284;46.828;29.480;2022-09-09T09:15:53;7.60;;;4.22;;
62289;SDS011;48284;46.828;29.480;2022-09-09T09:18:27;8.38;;;4.80;;
62289;SDS011;48284;46.828;29.480;2022-09-09T09:20:58;6.90;;;3.80;;
62289;SDS011;48284;46.828;29.480;2022-09-09T09:23:41;6.70;;;3.95;;
62289;SDS011;48284;46.828;29.480;2022-09-09T09:26:14;10.23;;;4.55;;
62289;SDS011;48284;46.828;29.480;2022-09-09T09:28:43;6.75;;;4.38;;
62289;SDS011;48284;46.828;29.480;2022-09-09T09:31:16;8.10;;;3.80;;
62289;SDS011;48284;46.828;29.480;2022-09-09T09:33:50;8.45;;;4.07;;
62289;SDS011;48284;46.828;29.480;2022-09-09T09:36:24;7.07;;;3.88;;
62289;SDS011;48284;46.828;29.480;2022-09-09T09:39:03;5.68;;;3.90;;
62289;SDS011;48284;46.828;29.480;2022-09-09T09:41:55;9.05;;;4.35;;
62289;SDS011;48284;46.828;29.480;2022-09-09T09:44:25;5.40;;;3.83;;
62289;SDS011;48284;46.828;29.480;2022-09-09T09:47:10;6.65;;;4.28;;
62289;SDS011;48284;46.828;29.480;2022-09-09T09:49:51;12.95;;;4.82;;
62289;SDS011;48284;46.828;29.480;2022-09-09T09:52:22;6.78;;;3.90;;
62289;SDS011;48284;46.828;29.480;2022-09-09T09:54:52;11.13;;;4.57;;
62289;SDS011;48284;46.828;29.480;2022-09-09T09:57:23;14.45;;;4.20;;
62289;SDS011;48284;46.828;29.480;2022-09-09T10:00:00;5.75;;;4.10;;
62289;SDS011;48284;46.828;29.480;2022-09-09T10:02:42;7.00;;;3.88;;
62289;SDS011;48284;46.828;29.480;2022-09-09T10:05:18;6.97;;;4.20;;
62289;SDS011;48284;46.828;29.480;2022-09-09T10:08:04;6.35;;;4.05;;
62289;SDS011;48284;46.828;29.480;2022-09-09T10:10:42;4.43;;;3.65;;
62289;SDS011;48284;46.828;29.480;2022-09-09T10:13:23;7.30;;;4.20;;
62289;SDS011;48284;46.828;29.480;2022-09-09T10:16:06;8.75;;;3.80;;
62289;SDS011;48284;46.828;29.480;2022-09-09T10:18:50;6.18;;;3.75;;
62289;SDS011;48284;46.828;29.480;2022-09-09T10:24:22;4.00;;;3.70;;
62289;SDS011;48284;46.828;29.480;2022-09-09T10:27:05;8.20;;;4.10;;
62289;SDS011;48284;46.828;29.480;2022-09-09T10:32:41;5.28;;;3.80;;
62289;SDS011;48284;46.828;29.480;2022-09-09T10:35:22;5.55;;;3.60;;
62289;SDS011;48284;46.828;29.480;2022-09-09T10:40:43;8.05;;;4.03;;
62289;SDS011;48284;46.828;29.480;2022-09-09T10:43:39;5.75;;;4.03;;
62289;SDS011;48284;46.828;29.480;2022-09-09T10:46:30;5.47;;;3.90;;
62289;SDS011;48284;46.828;29.480;2022-09-09T10:49:13;5.72;;;4.28;;
62289;SDS011;48284;46.828;29.480;2022-09-09T10:51:53;5.28;;;3.65;;
62289;SDS011;48284;46.828;29.480;2022-09-09T10:54:32;5.68;;;3.60;;
62289;SDS011;48284;46.828;29.480;2022-09-09T10:57:13;7.22;;;4.63;;
62289;SDS011;48284;46.828;29.480;2022-09-09T10:59:52;6.97;;;4.50;;
62289;SDS011;48284;46.828;29.480;2022-09-09T11:02:25;10.82;;;4.32;;
62289;SDS011;48284;46.828;29.480;2022-09-09T11:04:57;12.48;;;4.50;;
62289;SDS011;48284;46.828;29.480;2022-09-09T11:07:33;6.57;;;4.40;;
62289;SDS011;48284;46.828;29.480;2022-09-09T11:10:21;8.25;;;4.13;;
62289;SDS011;48284;46.828;29.480;2022-09-09T11:12:53;11.57;;;4.80;;
62289;SDS011;48284;46.828;29.480;2022-09-09T11:15:28;11.05;;;4.57;;
62289;SDS011;48284;46.828;29.480;2022-09-09T11:18:02;6.38;;;3.65;;
62289;SDS011;48284;46.828;29.480;2022-09-09T11:20:34;9.32;;;4.70;;
62289;SDS011;48284;46.828;29.480;2022-09-09T11:25:38;10.25;;;4.45;;
62289;SDS011;48284;46.828;29.480;2022-09-09T11:28:15;7.63;;;4.10;;
62289;SDS011;48284;46.828;29.480;2022-09-09T11:31:02;6.60;;;4.35;;
62289;SDS011;48284;46.828;29.480;2022-09-09T11:33:48;9.32;;;4.53;;
62289;SDS011;48284;46.828;29.480;2022-09-09T11:36:31;7.65;;;4.38;;
62289;SDS011;48284;46.828;29.480;2022-09-09T11:39:17;8.13;;;4.25;;
62289;SDS011;48284;46.828;29.480;2022-09-09T11:42:07;6.22;;;4.35;;
62289;SDS011;48284;46.828;29.480;2022-09-09T11:44:44;8.35;;;4.15;;
62289;SDS011;48284;46.828;29.480;2022-09-09T11:47:18;11.20;;;4.60;;
62289;SDS011;48284;46.828;29.480;2022-09-09T11:49:51;6.57;;;4.03;;
62289;SDS011;48284;46.828;29.480;2022-09-09T11:52:21;9.98;;;4.20;;
62289;SDS011;48284;46.828;29.480;2022-09-09T11:54:55;8.98;;;5.13;;
62289;SDS011;48284;46.828;29.480;2022-09-09T11:57:25;7.20;;;3.60;;
62289;SDS011;48284;46.828;29.480;2022-09-09T11:59:58;5.45;;;3.92;;
62289;SDS011;48284;46.828;29.480;2022-09-09T12:02:47;7.88;;;4.47;;
62289;SDS011;48284;46.828;29.480;2022-09-09T12:05:17;6.45;;;3.80;;
62289;SDS011;48284;46.828;29.480;2022-09-09T12:07:50;6.25;;;3.63;;
62289;SDS011;48284;46.828;29.480;2022-09-09T12:10:26;6.10;;;3.85;;
62289;SDS011;48284;46.828;29.480;2022-09-09T12:13:07;7.38;;;3.90;;
62289;SDS011;48284;46.828;29.480;2022-09-09T12:15:46;6.22;;;3.80;;
62289;SDS011;48284;46.828;29.480;2022-09-09T12:18:21;5.93;;;4.28;;
62289;SDS011;48284;46.828;29.480;2022-09-09T12:20:54;8.27;;;4.18;;
62289;SDS011;48284;46.828;29.480;2022-09-09T12:23:33;4.80;;;4.10;;
62289;SDS011;48284;46.828;29.480;2022-09-09T12:26:26;4.85;;;4.20;;
62289;SDS011;48284;46.828;29.480;2022-09-09T12:29:03;8.90;;;4.20;;
62289;SDS011;48284;46.828;29.480;2022-09-09T12:31:41;8.60;;;4.05;;
62289;SDS011;48284;46.828;29.480;2022-09-09T12:34:15;5.68;;;3.72;;
62289;SDS011;48284;46.828;29.480;2022-09-09T12:36:50;6.18;;;4.15;;
62289;SDS011;48284;46.828;29.480;2022-09-09T12:39:27;7.35;;;3.88;;
62289;SDS011;48284;46.828;29.480;2022-09-09T12:42:02;8.27;;;3.63;;
62289;SDS011;48284;46.828;29.480;2022-09-09T12:44:31;7.15;;;4.10;;
62289;SDS011;48284;46.828;29.480;2022-09-09T12:47:00;5.30;;;3.83;;
62289;SDS011;48284;46.828;29.480;2022-09-09T12:49:31;6.63;;;3.67;;
62289;SDS011;48284;46.828;29.480;2022-09-09T12:52:03;3.95;;;3.47;;
62289;SDS011;48284;46.828;29.480;2022-09-09T12:54:36;4.38;;;3.50;;
62289;SDS011;48284;46.828;29.480;2022-09-09T12:57:09;3.67;;;3.38;;
62289;SDS011;48284;46.828;29.480;2022-09-09T12:59:40;3.75;;;3.45;;
62289;SDS011;48284;46.828;29.480;2022-09-09T13:02:16;5.90;;;3.95;;
62289;SDS011;48284;46.828;29.480;2022-09-09T13:04:47;5.43;;;4.00;;
62289;SDS011;48284;46.828;29.480;2022-09-09T13:07:17;6.05;;;3.58;;
62289;SDS011;48284;46.828;29.480;2022-09-09T13:12:18;7.35;;;3.67;;
62289;SDS011;48284;46.828;29.480;2022-09-09T13:14:49;6.00;;;3.53;;
62289;SDS011;48284;46.828;29.480;2022-09-09T13:17:21;5.68;;;3.80;;
62289;SDS011;48284;46.828;29.480;2022-09-09T13:19:51;6.00;;;3.88;;
62289;SDS011;48284;46.828;29.480;2022-09-09T13:22:29;8.13;;;4.07;;
62289;SDS011;48284;46.828;29.480;2022-09-09T13:25:00;4.53;;;3.28;;
62289;SDS011;48284;46.828;29.480;2022-09-09T13:27:33;6.00;;;3.50;;
62289;SDS011;48284;46.828;29.480;2022-09-09T13:33:00;6.03;;;3.65;;
62289;SDS011;48284;46.828;29.480;2022-09-09T13:35:50;8.45;;;3.80;;
62289;SDS011;48284;46.828;29.480;2022-09-09T13:38:22;5.22;;;3.83;;
62289;SDS011;48284;46.828;29.480;2022-09-09T13:40:54;6.25;;;3.95;;
62289;SDS011;48284;46.828;29.480;2022-09-09T13:43:26;6.65;;;3.95;;
62289;SDS011;48284;46.828;29.480;2022-09-09T13:45:56;4.35;;;3.53;;
62289;SDS011;48284;46.828;29.480;2022-09-09T13:48:26;4.35;;;3.63;;
62289;SDS011;48284;46.828;29.480;2022-09-09T13:50:57;6.85;;;3.80;;
62289;SDS011;48284;46.828;29.480;2022-09-09T13:53:27;7.93;;;4.10;;
62289;SDS011;48284;46.828;29.480;2022-09-09T13:55:57;4.65;;;3.60;;
62289;SDS011;48284;46.828;29.480;2022-09-09T13:58:29;3.67;;;3.17;;
62289;SDS011;48284;46.828;29.480;2022-09-09T14:00:57;4.95;;;3.50;;
62289;SDS011;48284;46.828;29.480;2022-09-09T14:03:26;6.43;;;3.63;;
62289;SDS011;48284;46.828;29.480;2022-09-09T14:05:54;4.18;;;3.40;;
62289;SDS011;48284;46.828;29.480;2022-09-09T14:08:24;8.05;;;3.72;;
62289;SDS011;48284;46.828;29.480;2022-09-09T14:10:55;9.10;;;3.92;;
62289;SDS011;48284;46.828;29.480;2022-09-09T14:13:26;7.03;;;3.40;;
62289;SDS011;48284;46.828;29.480;2022-09-09T14:15:55;7.72;;;3.65;;
62289;SDS011;48284;46.828;29.480;2022-09-09T14:18:24;8.52;;;3.65;;
62289;SDS011;48284;46.828;29.480;2022-09-09T14:20:52;7.22;;;3.22;;
62289;SDS011;48284;46.828;29.480;2022-09-09T14:23:21;6.03;;;2.72;;
62289;SDS011;48284;46.828;29.480;2022-09-09T14:25:50;7.47;;;3.20;;
62289;SDS011;48284;46.828;29.480;2022-09-09T14:31:09;6.18;;;3.30;;
62289;SDS011;48284;46.828;29.480;2022-09-09T14:33:37;4.82;;;3.15;;
62289;SDS011;48284;46.828;29.480;2022-09-09T14:36:06;7.30;;;3.70;;
62289;SDS011;48284;46.828;29.480;2022-09-09T14:38:35;7.65;;;3.55;;
62289;SDS011;48284;46.828;29.480;2022-09-09T14:41:06;6.72;;;3.65;;
62289;SDS011;48284;46.828;29.480;2022-09-09T14:43:35;7.63;;;3.95;;
62289;SDS011;48284;46.828;29.480;2022-09-09T14:46:05;7.13;;;4.45;;
62289;SDS011;48284;46.828;29.480;2022-09-09T14:51:06;9.90;;;3.95;;
62289;SDS011;48284;46.828;29.480;2022-09-09T14:53:35;11.30;;;4.50;;
62289;SDS011;48284;46.828;29.480;2022-09-09T14:58:35;10.60;;;3.38;;
62289;SDS011;48284;46.828;29.480;2022-09-09T15:01:04;6.43;;;3.92;;
62289;SDS011;48284;46.828;29.480;2022-09-09T15:03:35;7.40;;;4.10;;
62289;SDS011;48284;46.828;29.480;2022-09-09T15:06:05;5.45;;;3.67;;
62289;SDS011;48284;46.828;29.480;2022-09-09T15:08:35;10.68;;;4.13;;
62289;SDS011;48284;46.828;29.480;2022-09-09T15:11:08;6.22;;;3.97;;
62289;SDS011;48284;46.828;29.480;2022-09-09T15:13:38;8.27;;;4.28;;
62289;SDS011;48284;46.828;29.480;2022-09-09T15:16:09;5.88;;;3.90;;
62289;SDS011;48284;46.828;29.480;2022-09-09T15:18:41;6.93;;;4.13;;
62289;SDS011;48284;46.828;29.480;2022-09-09T15:21:11;10.45;;;4.50;;
62289;SDS011;48284;46.828;29.480;2022-09-09T15:23:42;8.73;;;4.05;;
62289;SDS011;48284;46.828;29.480;2022-09-09T15:26:11;4.43;;;3.45;;
62289;SDS011;48284;46.828;29.480;2022-09-09T15:28:41;4.28;;;3.13;;
62289;SDS011;48284;46.828;29.480;2022-09-09T15:31:12;5.22;;;3.70;;
62289;SDS011;48284;46.828;29.480;2022-09-09T15:33:48;6.85;;;3.53;;
62289;SDS011;48284;46.828;29.480;2022-09-09T15:36:18;4.28;;;3.13;;
62289;SDS011;48284;46.828;29.480;2022-09-09T15:38:50;8.57;;;3.65;;
62289;SDS011;48284;46.828;29.480;2022-09-09T15:43:49;8.45;;;3.42;;
62289;SDS011;48284;46.828;29.480;2022-09-09T15:46:24;5.05;;;3.30;;
62289;SDS011;48284;46.828;29.480;2022-09-09T15:48:56;6.20;;;3.30;;